SBOSBO SOU / EGHI
Speedbird OnlineSpeedbird Online SOU / EGHI

Southampton Airport
19:24 -1.3°C

Location Southampton, United Kingdom
Latitude: 50.95029830932617
Longitude: -1.3567999601364136
Web Airport Website | Wikipedia
Altitude 13 Meter / 44 Feet
Distance 121 KM / 75 Miles
from London.
Time Zone UTC 0 hours (Europe/London)
Codes IATA: SOU
ICAO: EGHI
Runways
RunwayLength (m)Surface
021723Asphalt
201723Asphalt
Radio
TypeDescriptionFrequency
APPAPP128.85
ATISATIS113.35
GNDGND121.775
OPSOPS130.65
TWRTWR118.2
Live ATC
METAR EGHI 091850Z 00000KT CAVOK M02/M03 Q1009
TAF TAF EGHI 091657Z 0918/0923 VRB02KT 9999 FEW020 TEMPO 0918/0923 6000 PROB30 TEMPO 0918/0923 4000 BR
Weather As Of 09 Dec 2022 19:24
Description Clear sky
Wind 0 km/h from North (0°)
Cloud Cover 0%
Precipitation Rain: none, Snow: none
Sunrise 07:56
Sunset 15:59
Rotations During the last 90 days there were
15 flights from AGP
8 flights from PMI
8 flights from FAO
7 flights from ALC
7 flights from IBZ
7 flights from EDI
6 flights from DUB
2 flights from EGC
2 flights from JMK
15 flights to AGP
9 flights to PMI
8 flights to EDI
8 flights to IBZ
8 flights to DUB
7 flights to ALC
7 flights to FAO
3 flights to EGC
3 flights to JMK


© 2017-2022 Speedbird Online